OIMB  Birjand  Airport

Birjand, Iran

Add Bookmark
Status
Operational
Latitude Longitude
32° 53' 53" N 59° 15' 57" E
32.898056 59.266111
Local (DST + 5) UTC (GMT + 4)
Apr 1, 2015 01:12 Mar 31, 2015 20:42
Sunrise-Sunset Local UTC
Begin Civil Twilight 05:54 01:24
Sunrise 06:19 01:49
Sunset 06:54 14:24
End Civil Twilight 07:18 14:48
VFR
VFR
MVFR
MVFR
IFR
VFR
LIFR
VFR
Unknown
Unavailable

Current Weather

METAR Observed VFR
OIMB 312000Z 33004KT 9999 FEW035CB FEW035 14/08 Q1010 Tue, Mar 31, 2015 @ 20:00 UTC
(42 Minutes ago)
Visual Flight Rules
Wind Visibility Clouds Conditions
330° at 4 knots (7 kph) 10 km or more
  • Few at 3,500' AGL
  • Few at 3,500' AGL
  • No significant weather
Temperatures Readings Precipitation
Current Temp 14°C (57°F)
Dewpoint 8°C (46°F)
Humidity 67%
Altimeter 29.82"Hg
Sea Level Pressure 1010mb
Field Elevation 4891.73'
None Recorded

Additional weather within a 185.2km radius of OIMB

Map ICAO Location
OIMD 170.2km N (342°)
VFR
VFR
MVFR
MVFR
IFR
VFR
LIFR
VFR
Unknown
Unavailable
-
-

CheckWX.com is intended as a tool to help pilots better visualize weather data. It is not intended as a substitute for an official weather briefing obtained from a Flight Service Station. CheckWX.com does not meet the FAA requirements for an official pre-flight weather briefing. Therefore, it's important that pilots still call and obtain an official FSS pre-flight weather briefing.